Date,TemperatureHighF,TemperatureAvgF,TemperatureLowF,DewpointHighF,DewpointAvgF,DewpointLowF,HumidityHigh,HumidityAvg,HumidityLow,PressureMaxIn,PressureMinIn,WindSpeedMaxMPH,WindSpeedAvgMPH,GustSpeedMaxMPH,PrecipitationSumIn
2013-1-1,68,55,47,67,54,46,98,97,92,30.04,29.74,11,6,0,2.67
2013-1-2,47,43,40,47,42,39,98,94,89,30.15,30.01,10,6,0,0.02
2013-1-3,56,46,36,40,38,35,98,76,51,30.27,30.14,12,6,0,0.00
2013-1-4,49,46,44,41,39,37,85,76,66,30.37,30.19,11,4,0,0.00
2013-1-5,46,44,43,45,44,42,98,98,98,30.24,30.11,9,4,0,0.64
2013-1-6,58,48,39,48,45,39,98,89,70,30.20,30.09,11,6,0,0.00
2013-1-7,60,47,35,48,42,34,98,85,61,30.19,29.97,8,3,0,0.00
2013-1-8,64,57,50,63,56,47,98,96,87,29.97,29.77,16,4,0,0.22
2013-1-9,69,65,62,69,64,61,98,98,98,29.90,29.76,12,6,0,1.59
2013-1-10,69,62,52,65,60,52,98,95,78,29.94,29.80,9,2,0,0.30
2013-1-11,74,66,55,65,60,55,98,83,59,29.89,29.74,8,3,0,0.00
2013-1-12,76,73,67,75,72,67,98,98,98,29.76,29.55,11,6,0,0.06
2013-1-13,72,51,44,72,50,43,98,96,93,29.99,29.62,16,8,0,0.06
2013-1-14,45,42,39,44,41,38,98,98,98,30.08,29.91,14,7,0,0.41
2013-1-15,40,37,35,39,37,34,98,98,98,29.99,29.87,15,6,0,0.05
2013-1-16,53,42,30,40,35,29,98,79,50,30.12,29.96,11,5,0,0.00
2013-1-17,61,42,25,41,33,24,98,73,41,30.28,30.11,12,3,0,0.00
2013-1-19,67,53,44,52,48,43,98,86,58,30.11,30.06,5,1,0,0.00
2013-1-20,70,53,36,57,48,36,98,85,54,30.14,29.96,6,1,0,0.00
2013-1-21,71,54,40,56,49,40,98,84,56,30.10,30.00,4,1,0,0.00
2013-1-22,70,54,42,55,48,41,98,81,58,30.20,30.08,8,3,0,0.00
2013-1-23,74,60,41,62,55,41,98,87,63,30.22,30.09,11,3,0,0.00
2013-1-24,73,62,52,70,61,52,98,97,86,30.16,30.01,7,2,0,0.00
2013-1-25,76,67,56,70,63,56,98,88,72,30.05,29.92,9,4,0,0.01
2013-1-28,73,71,70,72,70,69,98,98,98,29.86,29.84,9,5,0,0.00
2013-1-29,76,73,70,75,72,69,98,98,94,29.82,29.47,16,8,0,0.13
2013-1-30,60,54,36,58,41,34,98,66,40,30.07,29.58,27,8,0,0.01
2013-1-31,67,54,30,44,38,30,98,58,31,30.17,30.07,10,4,0,0.00
2013-2-1,70,57,42,51,46,41,98,72,40,30.24,30.12,8,2,0,0.00
2013-2-2,74,67,55,61,58,54,98,74,54,30.14,30.02,8,3,0,0.00
2013-2-3,72,65,46,50,41,33,98,46,24,30.18,29.95,10,4,0,0.00
2013-2-4,70,66,57,66,64,57,98,94,86,29.86,29.70,7,3,0,0.00
2013-2-5,78,69,62,71,66,62,98,90,70,29.85,29.74,4,2,0,0.02
2013-2-6,66,63,61,65,62,60,98,98,98,29.91,29.70,12,4,0,0.98
2013-2-7,68,64,58,67,63,58,98,98,94,29.82,29.75,4,2,0,0.00
2013-2-8,64,57,51,58,55,51,98,94,80,30.01,29.96,10,5,0,0.01
2013-2-9,67,59,46,66,58,46,98,98,98,30.02,29.74,13,5,0,0.00
2013-2-10,76,67,62,75,67,61,98,98,96,29.80,29.64,13,5,0,0.30
2013-2-11,62,56,51,62,55,51,98,95,80,29.94,29.80,12,6,0,0.70
2013-2-12,65,56,54,64,56,53,98,98,98,29.84,29.63,12,5,0,0.45
2013-2-13,60,54,44,48,46,43,98,75,59,29.94,29.86,11,4,0,0.00
2013-2-14,58,47,33,48,43,33,98,89,66,30.02,29.94,4,1,0,0.00
2013-2-15,69,51,36,51,43,35,98,77,45,30.15,29.96,16,5,0,0.00
2013-2-16,60,47,33,38,33,27,98,62,35,30.28,30.10,12,4,0,0.00
2013-2-17,70,52,33,55,45,33,98,79,47,30.13,29.94,13,4,0,0.00
2013-2-18,71,65,55,68,62,54,98,91,82,29.93,29.69,24,7,0,0.71
2013-2-19,68,56,47,55,44,36,98,66,33,30.12,29.90,11,5,0,0.00
2013-2-20,60,54,47,55,44,30,91,69,39,30.03,29.70,14,6,0,0.00
2013-2-21,75,65,56,75,64,56,98,98,90,29.69,29.50,19,6,0,0.13
2013-2-22,66,58,54,60,55,53,98,91,69,29.83,29.69,11,5,0,0.00
2013-2-23,70,57,48,56,52,48,98,85,59,29.84,29.72,13,4,0,0.00
2013-2-24,70,58,43,59,53,43,98,84,58,29.81,29.52,8,4,0,0.00
2013-2-25,77,64,48,72,53,28,98,73,18,29.54,29.28,20,7,0,0.54
2013-2-26,64,53,43,46,41,36,98,67,46,29.79,29.54,19,7,0,0.00
2013-2-27,75,55,40,56,44,34,98,70,31,29.99,29.76,19,4,0,0.00
2013-2-28,58,46,36,40,35,31,98,69,41,30.12,29.97,13,4,0,0.00
2013-3-1,64,48,30,39,35,30,98,64,33,30.11,29.97,14,4,0,0.00
2013-3-2,55,44,31,35,32,28,98,65,39,30.19,30.07,18,6,0,0.00
2013-3-3,67,48,27,52,36,26,98,71,35,30.15,29.87,9,3,0,0.00
2013-3-4,77,65,54,67,61,52,98,89,67,29.88,29.63,22,8,0,0.00
2013-3-5,70,64,49,65,49,31,98,65,31,30.15,29.65,20,7,0,0.00
2013-3-6,68,51,34,40,33,24,88,55,19,30.27,30.08,9,3,0,0.00
2013-3-7,69,53,36,52,44,36,98,76,37,30.17,30.04,9,2,0,0.00
2013-3-8,73,59,43,62,55,43,98,88,65,30.10,29.93,9,4,0,0.00
2013-3-9,74,66,59,68,64,59,98,95,79,29.93,29.65,14,6,0,0.00
2013-3-10,70,61,52,69,60,45,98,95,73,29.88,29.60,13,5,0,0.53
2013-3-11,63,51,40,44,39,35,98,66,39,29.97,29.82,16,5,0,0.00
2013-3-12,76,52,32,47,39,31,98,68,28,30.12,29.95,7,2,0,0.00
2013-3-13,73,55,40,45,41,34,98,65,24,30.31,30.12,11,3,0,0.00
2013-3-14,74,56,39,51,45,38,98,72,36,30.30,30.15,10,3,0,0.00
2013-3-15,78,61,42,64,54,42,98,82,49,30.14,29.91,12,4,0,0.00
2013-3-16,80,67,56,68,62,56,98,86,57,29.91,29.71,14,5,0,0.01
2013-3-17,79,70,63,75,68,62,98,94,74,29.74,29.56,12,5,0,0.04
2013-3-18,88,75,68,75,70,68,98,86,57,29.75,29.56,9,4,0,0.00
2013-3-19,82,70,55,68,60,47,98,73,49,29.85,29.72,12,5,0,0.00
2013-3-20,75,62,50,66,49,38,98,67,28,30.04,29.80,14,6,0,0.19
2013-3-21,71,61,47,64,51,40,93,72,49,29.89,29.57,18,5,0,0.01
2013-3-22,83,73,66,76,71,64,98,92,75,29.60,29.48,14,4,0,0.04
2013-3-23,75,71,69,74,70,68,98,98,98,29.57,29.40,7,3,0,0.02
2013-3-24,69,59,46,68,48,35,98,70,40,29.97,29.45,22,8,0,0.00
2013-3-25,62,49,33,36,31,27,98,56,27,30.20,29.98,15,5,0,0.00
2013-3-26,63,48,32,35,29,24,91,50,27,30.34,30.17,13,4,0,0.00
2013-3-27,69,51,32,48,41,32,98,73,40,30.26,30.07,15,3,0,0.00
2013-3-28,73,60,50,61,55,48,98,85,64,30.16,30.04,10,3,0,0.00
2013-3-29,78,65,53,67,61,53,98,89,65,30.11,29.97,9,4,0,0.00
2013-3-30,79,68,60,69,65,59,98,89,68,29.99,29.81,10,3,0,0.00
2013-3-31,80,66,60,73,65,60,98,95,76,29.83,29.71,11,4,0,0.68
2013-4-1,83,69,60,72,66,59,98,89,65,29.92,29.77,6,2,0,0.00
2013-4-2,77,67,58,69,64,58,98,90,69,29.89,29.70,12,3,0,0.01
2013-4-3,65,57,50,64,56,50,98,98,98,29.94,29.64,15,7,0,2.39
2013-4-4,54,50,48,51,49,48,98,95,87,30.02,29.85,12,5,0,0.00
2013-4-5,77,59,44,56,51,44,98,78,44,30.08,29.91,9,3,0,0.00
2013-4-6,75,62,48,64,58,48,98,87,66,29.96,29.82,11,3,0,0.00
2013-4-7,80,69,60,69,65,59,98,87,66,29.86,29.71,12,4,0,0.00
2013-4-8,80,72,66,74,70,66,98,92,74,29.75,29.66,12,5,0,0.00
2013-4-9,81,74,67,79,73,67,98,97,86,29.68,29.59,17,6,0,0.01
2013-4-10,80,71,51,79,70,51,98,98,98,29.67,29.54,10,6,0,0.98
2013-4-11,72,54,45,56,50,44,98,88,53,29.75,29.58,14,5,0,1.81
2013-4-12,80,60,43,58,51,43,98,77,37,29.86,29.70,9,2,0,0.00
2013-4-13,81,65,48,63,57,47,98,80,46,29.85,29.65,10,3,0,0.00
2013-4-14,83,70,60,72,66,59,98,89,64,29.65,29.51,6,2,0,0.00
2013-4-15,86,74,61,79,71,61,98,93,73,29.71,29.58,9,3,0,0.00
2013-4-16,83,76,73,81,76,72,98,98,95,29.80,29.67,12,4,0,0.03
2013-4-17,79,76,74,78,76,74,98,98,98,29.80,29.63,16,5,0,0.03
2013-4-18,79,68,52,78,68,51,98,98,98,29.87,29.53,12,6,0,0.36
2013-4-19,67,53,43,51,43,38,98,72,38,30.09,29.87,14,7,0,0.00
2013-4-20,72,55,36,50,44,36,98,71,32,30.12,29.93,12,3,0,0.00
2013-4-21,78,61,44,60,54,44,98,80,50,30.04,29.90,10,2,0,0.00
2013-4-22,82,66,51,66,58,51,98,79,47,29.96,29.78,7,2,0,0.00
2013-4-23,82,69,55,76,68,54,98,95,79,29.84,29.73,8,2,0,0.00
2013-4-24,73,62,50,72,57,49,98,86,61,30.06,29.76,17,6,0,0.29
2013-4-25,76,64,52,58,54,50,98,72,40,30.18,30.03,11,5,0,0.00
2013-4-26,79,71,62,75,68,56,98,92,72,30.06,29.93,9,3,0,0.00
2013-4-27,80,73,69,79,72,68,98,98,91,29.96,29.77,11,3,0,0.34
2013-4-28,86,73,63,74,68,62,98,85,57,29.85,29.70,6,2,0,0.00
2013-4-29,86,71,58,77,67,58,98,89,60,29.79,29.66,8,2,0,0.00
2013-4-30,87,74,67,77,70,66,98,90,61,29.70,29.56,8,2,0,0.00
2013-5-1,85,75,68,78,72,68,98,91,71,29.72,29.62,6,2,0,0.00
2013-5-2,79,68,53,73,66,53,98,94,76,29.95,29.71,14,6,0,0.01
2013-5-3,68,55,44,52,45,40,98,74,37,29.98,29.86,19,8,0,0.00
2013-5-4,82,61,38,60,48,37,98,70,31,29.93,29.67,12,3,0,0.00
2013-5-5,71,59,47,57,50,46,98,73,48,29.92,29.78,12,4,0,0.00
2013-5-6,81,63,44,63,55,43,98,77,49,29.95,29.78,9,2,0,0.00
2013-5-7,91,72,56,68,62,56,98,75,42,29.90,29.76,7,2,0,0.00
2013-5-8,84,72,58,75,66,58,98,85,61,29.91,29.81,10,2,0,0.00
2013-5-9,78,73,66,77,72,66,98,98,98,29.86,29.71,10,3,0,0.00
2013-5-10,81,70,66,75,69,65,98,96,79,29.88,29.69,16,3,0,9.84
2013-5-11,87,75,67,76,70,67,98,86,59,29.90,29.73,11,3,0,0.07
2013-5-12,82,71,62,70,65,60,98,82,55,30.00,29.89,10,4,0,0.00
2013-5-13,85,68,50,62,57,49,98,72,32,30.14,30.00,7,2,0,0.00
2013-5-14,86,71,54,73,62,53,98,77,34,30.08,29.93,8,2,0,0.00
2013-5-15,79,71,62,75,68,62,98,92,78,29.99,29.76,11,2,0,0.00
2013-5-16,84,75,67,75,72,67,98,91,75,29.80,29.65,9,3,0,0.00
2013-5-17,89,78,72,80,75,71,98,91,75,29.79,29.68,9,3,0,0.00
2013-5-18,90,80,74,78,76,74,98,87,63,29.80,29.73,8,4,0,0.00
2013-5-19,90,81,74,80,77,74,98,87,66,29.75,29.67,12,4,0,0.00
2013-5-20,89,81,76,80,78,76,98,91,75,29.75,29.62,10,4,0,0.01
2013-5-21,88,81,76,80,78,75,98,91,75,29.70,29.55,11,3,0,0.00
2013-5-22,88,78,68,80,75,68,98,91,74,29.76,29.61,11,3,0,0.09
2013-5-23,90,80,71,82,76,71,98,88,69,29.90,29.73,7,2,0,0.00
2013-5-24,92,79,72,81,76,71,98,90,69,29.95,29.83,8,2,0,0.00
2013-5-25,89,79,71,81,76,70,98,91,70,30.01,29.91,7,2,0,0.00
2013-5-26,90,80,71,79,75,70,98,86,65,29.94,29.83,6,2,0,0.00
2013-5-27,90,79,68,80,74,68,98,86,65,29.90,29.75,8,2,0,0.00
2013-5-28,90,80,72,79,75,71,98,84,62,29.83,29.70,11,3,0,0.00
2013-5-29,87,80,74,79,77,74,98,89,73,29.76,29.64,8,3,0,0.00
2013-5-30,88,82,76,83,79,76,98,91,79,29.74,29.66,14,4,0,0.00
2013-5-31,91,83,78,83,80,78,98,90,75,29.73,29.66,14,4,0,0.00
2013-6-1,93,84,76,83,80,76,98,89,69,29.74,29.66,9,4,0,0.00
2013-6-2,86,77,69,78,74,69,98,92,72,29.86,29.68,11,3,0,0.35
2013-6-3,92,79,67,77,72,66,98,82,55,29.76,29.64,11,3,0,0.00
2013-6-4,96,82,70,82,75,69,98,82,53,29.76,29.63,6,2,0,0.00
2013-6-5,97,83,71,84,78,70,98,87,60,29.72,29.58,7,2,0,0.00
2013-6-6,92,81,74,85,79,74,98,92,72,29.67,29.59,12,2,0,0.24
2013-6-8,78,75,73,77,74,72,98,98,97,29.71,29.67,2,0,0,0.00
2013-6-9,91,76,71,84,75,71,98,96,74,29.79,29.64,9,2,0,1.56
2013-6-10,93,85,72,84,80,71,98,85,66,29.82,29.77,8,2,0,0.00
2013-6-11,95,84,72,86,79,72,98,88,66,29.87,29.81,6,1,0,0.00
2013-6-12,95,84,73,86,80,72,98,88,65,29.88,29.80,7,2,0,0.00
2013-6-13,101,86,74,87,80,74,98,85,54,29.88,29.73,5,2,0,0.00
2013-6-14,99,86,74,88,82,73,98,89,64,29.82,29.67,14,2,0,0.12
2013-6-15,96,82,72,88,79,72,98,93,69,29.83,29.70,6,2,0,0.14
2013-6-16,97,84,73,88,80,72,98,87,61,29.88,29.74,7,2,0,0.00
2013-6-17,96,84,74,88,80,74,98,87,59,29.84,29.70,9,2,0,0.00
2013-6-18,94,83,75,88,81,74,98,94,74,29.82,29.71,14,3,0,0.99
2013-6-19,92,84,76,91,83,75,98,98,88,29.83,29.74,9,3,0,0.06
2013-6-20,95,84,74,91,82,73,98,95,79,29.90,29.80,8,1,0,0.00
2013-6-21,96,84,73,91,81,72,98,92,64,29.95,29.85,8,1,0,0.00
2013-6-22,94,83,72,93,81,72,98,94,77,29.92,29.80,10,2,0,0.00
2013-6-23,94,82,72,92,80,72,98,96,75,29.91,29.78,8,2,0,1.40
2013-6-24,94,84,73,91,82,73,98,95,77,29.91,29.80,7,2,0,0.04
2013-6-25,94,84,75,92,82,75,98,93,74,29.87,29.75,9,2,0,0.00
2013-6-26,97,86,75,91,82,75,98,89,61,29.85,29.76,10,2,0,0.00
2013-6-27,102,85,73,91,81,72,98,88,55,29.86,29.73,7,2,0,0.00
2013-6-28,101,86,74,89,82,74,98,90,64,29.80,29.61,9,3,0,0.00
2013-6-29,103,88,75,88,80,74,98,80,48,29.66,29.52,9,3,0,0.00
2013-6-30,98,85,68,85,73,67,98,72,46,29.67,29.56,9,2,0,0.00
2013-7-1,91,79,65,77,72,64,98,82,57,29.77,29.68,9,2,0,0.00
2013-7-2,93,80,66,80,73,66,98,80,48,29.84,29.74,10,2,0,0.00
2013-7-3,93,81,68,80,73,67,98,80,50,29.86,29.75,9,3,0,0.00
2013-7-4,93,81,68,81,74,67,98,83,55,29.80,29.73,8,2,0,0.00
2013-7-5,96,83,68,86,76,67,98,83,49,29.81,29.70,11,3,0,0.00
2013-7-6,95,82,72,86,78,71,98,90,64,29.79,29.70,10,4,0,0.00
2013-7-7,87,80,74,86,79,74,98,98,93,29.86,29.72,6,2,0,0.15
2013-7-8,94,81,73,91,80,73,98,97,78,29.96,29.84,9,2,0,0.00
2013-7-9,96,84,73,93,81,72,98,91,68,29.98,29.86,7,2,0,0.00
2013-7-10,96,85,74,91,82,74,98,90,69,29.91,29.79,6,2,0,0.00
2013-7-11,96,85,75,87,81,74,98,89,68,29.84,29.70,7,2,0,0.00
2013-7-12,102,84,75,86,80,75,98,90,57,29.80,29.64,14,2,0,0.00
2013-7-13,98,85,73,89,78,69,98,83,41,29.77,29.66,10,2,0,0.00
2013-7-14,90,79,71,88,78,70,98,97,85,29.79,29.70,7,2,0,0.05
2013-7-15,92,80,73,90,79,72,98,97,85,29.90,29.72,8,3,0,0.00
2013-7-16,89,77,74,88,76,73,98,98,98,29.92,29.86,15,4,0,1.70
2013-7-22,82,82,82,82,82,82,98,98,98,29.82,29.82,0,0,0,0.00
2013-7-23,95,85,76,88,82,75,98,91,74,29.87,29.74,10,4,0,0.00
2013-7-24,96,88,73,87,84,73,98,88,71,29.83,29.70,8,3,0,0.00
2013-7-25,98,86,78,88,83,77,98,91,66,29.87,29.76,7,2,0,0.00
2013-7-26,89,80,75,87,79,75,98,98,94,29.88,29.83,5,1,0,0.00
2013-7-29,88,84,80,83,82,80,98,92,87,29.89,29.86,2,1,0,0.00
2013-7-30,95,95,95,84,84,84,71,71,71,29.89,29.89,3,3,0,0.00